PHSF

Details ICAO PHSF (BSF)
Name BRADSHAW AAF
Region USA (Hawaii)
Timezone Pacific/Honolulu (UTC-10.0)
Plans Departing 2
Arriving 2
Stats Elevation 6,189 ft / 1,886 m (AMSL)
Location 19.760081° -155.553810°
Runways 1
Magnetic Variation 9.465° E
Sunrise 2017-12-15 16:50:40 UTC / 2017-12-15 06:50:40 Local
Sunset 2017-12-16 03:47:16 UTC / 2017-12-15 17:47:16 Local
Advertisement - Login to hide

Runways

ID Width Length Bearing (true) Bearing (mag) Surface Threshold Offset Overrun Length
09 90 ft / 27 m 3,697 ft / 1,127 m 100.76° 91.29° Asphalt 0 ft / 0 m 0 ft / 0 m
27 90 ft / 27 m 3,697 ft / 1,127 m 280.76° 271.29° Asphalt 0 ft / 0 m 604 ft / 184 m

Map

Weather


0- 5 10 15 20 25 30 35+ Temperature / ° C

Clouds and Precipitation
Forecast for 2017-12-16 12:00 UTC. Updated 27 minutes ago

Ground ~20,000 ft ~40,000 ft Winds

METAR

PHSF 160656Z AUTO 35003KT 10SM CLR 08/02 A3013 RMK AO2 SLP118 WND DATA ESTMD T00750015 $

TAF

Not found

Frequencies

Recorded 124.70 MHz ATIS
Tower 126.30 MHz TWR
Unicom 126.30 MHz CTAF
Approach 126.00 MHz HONOLULU CNTR
Warning: Do not use this data for real-world aviation or navigation. No guarantee of current accuracy is given.